createdAt,value
2023-01-26T00:01:31.681Z,8.32
2023-01-26T00:03:58.809Z,7.65
2023-01-26T00:06:26.561Z,7.47
2023-01-26T00:08:55.847Z,8.07
2023-01-26T00:11:27.010Z,8.02
2023-01-26T00:13:55.564Z,8.63
2023-01-26T00:16:22.663Z,9.02
2023-01-26T00:18:49.881Z,8.57
2023-01-26T00:21:22.289Z,9.70
2023-01-26T00:23:51.193Z,8.60
2023-01-26T00:26:21.549Z,9.10
2023-01-26T00:28:49.211Z,8.63
2023-01-26T00:31:22.208Z,7.93
2023-01-26T00:33:50.524Z,8.02
2023-01-26T00:36:17.861Z,8.02
2023-01-26T00:38:45.002Z,8.70
2023-01-26T00:41:30.701Z,8.38
2023-01-26T00:43:57.850Z,8.00
2023-01-26T00:46:25.192Z,8.23
2023-01-26T00:48:52.329Z,9.30
2023-01-26T00:51:19.477Z,8.10
2023-01-26T00:53:46.918Z,8.45
2023-01-26T00:56:14.990Z,9.35
2023-01-26T00:58:43.522Z,8.55
2023-01-26T01:01:10.592Z,8.65
2023-01-26T01:03:37.629Z,8.77
2023-01-26T01:06:04.795Z,7.78
2023-01-26T01:08:31.893Z,8.23
2023-01-26T01:11:10.850Z,7.97
2023-01-26T01:13:38.913Z,7.20
2023-01-26T01:16:11.824Z,8.85
2023-01-26T01:18:39.535Z,8.55
2023-01-26T01:21:08.609Z,7.78
2023-01-26T01:23:35.968Z,7.75
2023-01-26T01:26:03.419Z,8.35
2023-01-26T01:28:30.898Z,7.35
2023-01-26T01:30:58.063Z,7.88
2023-01-26T01:33:26.173Z,7.50
2023-01-26T01:35:58.474Z,7.20
2023-01-26T01:38:26.534Z,7.55
2023-01-26T01:40:55.313Z,7.55
2023-01-26T01:43:24.377Z,6.90
2023-01-26T01:45:52.946Z,7.07
2023-01-26T01:48:24.308Z,6.43
2023-01-26T01:50:55.188Z,9.23
2023-01-26T01:53:34.983Z,7.05
2023-01-26T01:56:07.766Z,6.75
2023-01-26T01:58:40.592Z,6.93
2023-01-26T02:01:07.903Z,6.80
2023-01-26T02:03:37.259Z,7.07
2023-01-26T02:06:25.113Z,5.60
2023-01-26T02:08:54.284Z,6.93
2023-01-26T02:11:33.837Z,6.60
2023-01-26T02:14:04.159Z,5.88
2023-01-26T02:16:31.371Z,5.32
2023-01-26T02:18:59.321Z,5.82
2023-01-26T02:21:26.882Z,6.15
2023-01-26T02:24:12.721Z,5.82
2023-01-26T02:26:39.845Z,5.80
2023-01-26T02:29:11.555Z,5.55
2023-01-26T02:31:40.935Z,5.38
2023-01-26T02:34:08.099Z,5.68
2023-01-26T02:36:35.434Z,5.85
2023-01-26T02:39:02.489Z,6.10
2023-01-26T02:41:48.050Z,6.78
2023-01-26T02:44:15.967Z,6.25
2023-01-26T02:46:43.265Z,6.97
2023-01-26T02:49:28.796Z,6.95
2023-01-26T02:51:55.926Z,6.28
2023-01-26T02:54:41.447Z,6.63
2023-01-26T02:57:08.699Z,6.05
2023-01-26T02:59:35.782Z,5.65
2023-01-26T03:02:03.431Z,7.05
2023-01-26T03:04:30.522Z,6.35
2023-01-26T03:06:57.579Z,7.18
2023-01-26T03:09:24.663Z,6.40
2023-01-26T03:11:51.804Z,7.57
2023-01-26T03:14:19.422Z,7.65
2023-01-26T03:16:46.671Z,7.55
2023-01-26T03:19:33.915Z,7.63
2023-01-26T03:22:19.602Z,7.40
2023-01-26T03:25:05.350Z,7.57
2023-01-26T03:27:40.188Z,6.85
2023-01-26T03:30:07.806Z,7.10
2023-01-26T03:32:34.960Z,6.85
2023-01-26T03:35:02.174Z,6.95
2023-01-26T03:37:34.852Z,7.50
2023-01-26T03:40:20.456Z,7.15
2023-01-26T03:43:06.099Z,6.65
2023-01-26T03:45:51.932Z,7.00
2023-01-26T03:48:37.671Z,6.80
2023-01-26T03:51:23.534Z,6.55
2023-01-26T03:54:09.347Z,5.72
2023-01-26T03:56:36.570Z,6.25
2023-01-26T03:59:09.587Z,5.82
2023-01-26T04:01:39.447Z,6.63
2023-01-26T04:04:26.051Z,6.80
2023-01-26T04:07:12.116Z,6.15
2023-01-26T04:09:42.153Z,7.47
2023-01-26T04:12:10.537Z,6.90
2023-01-26T04:14:55.926Z,7.53
2023-01-26T04:17:41.643Z,6.78
2023-01-26T04:20:27.773Z,6.65
2023-01-26T04:22:54.923Z,6.70
2023-01-26T04:25:22.873Z,6.75
2023-01-26T04:27:50.180Z,6.68
2023-01-26T04:30:18.451Z,6.90
2023-01-26T04:32:46.593Z,6.57
2023-01-26T04:35:13.795Z,6.65
2023-01-26T04:37:41.203Z,6.25
2023-01-26T04:40:09.375Z,6.05
2023-01-26T04:42:36.770Z,7.13
2023-01-26T04:45:04.170Z,6.32
2023-01-26T04:47:31.300Z,6.60
2023-01-26T04:49:58.909Z,6.82
2023-01-26T04:52:26.009Z,6.88
2023-01-26T04:54:53.131Z,6.68
2023-01-26T04:57:21.561Z,7.43
2023-01-26T04:59:48.784Z,6.63
2023-01-26T05:02:15.987Z,7.03
2023-01-26T05:04:43.108Z,7.03
2023-01-26T05:07:10.267Z,6.45
2023-01-26T05:09:37.416Z,6.38
2023-01-26T05:12:24.642Z,7.05
2023-01-26T05:14:51.753Z,7.10
2023-01-26T05:17:19.144Z,7.93
2023-01-26T05:19:46.707Z,7.20
2023-01-26T05:22:13.821Z,7.78
2023-01-26T05:24:40.907Z,8.07
2023-01-26T05:27:23.051Z,7.97
2023-01-26T05:29:51.300Z,8.18
2023-01-26T05:32:18.757Z,8.35
2023-01-26T05:34:46.367Z,8.10
2023-01-26T05:37:15.046Z,8.60
2023-01-26T05:39:42.886Z,8.00
2023-01-26T05:42:11.672Z,8.90
2023-01-26T05:44:40.478Z,9.35
2023-01-26T05:47:07.750Z,9.38
2023-01-26T05:49:35.055Z,9.20
2023-01-26T05:52:02.187Z,8.77
2023-01-26T05:54:29.299Z,8.15
2023-01-26T05:56:57.879Z,8.77
2023-01-26T05:59:25.037Z,9.55
2023-01-26T06:01:52.198Z,8.70
2023-01-26T06:04:19.543Z,8.90
2023-01-26T06:06:46.761Z,8.25
2023-01-26T06:09:13.981Z,8.52
2023-01-26T06:11:41.147Z,8.43
2023-01-26T06:14:08.334Z,8.65
2023-01-26T06:16:35.527Z,7.97
2023-01-26T06:19:03.138Z,8.07
2023-01-26T06:21:31.923Z,8.18
2023-01-26T06:23:59.886Z,8.60
2023-01-26T06:26:27.049Z,7.55
2023-01-26T06:28:54.283Z,8.13
2023-01-26T06:31:24.879Z,8.38
2023-01-26T06:33:52.417Z,7.60
2023-01-26T06:36:19.544Z,7.30
2023-01-26T06:38:48.668Z,8.70
2023-01-26T06:41:16.866Z,7.82
2023-01-26T06:43:48.955Z,7.75
2023-01-26T06:46:17.823Z,8.20
2023-01-26T06:48:45.207Z,8.07
2023-01-26T06:51:21.465Z,8.15
2023-01-26T06:53:56.461Z,8.77
2023-01-26T06:56:24.719Z,9.02
2023-01-26T06:58:51.835Z,8.45
2023-01-26T07:01:27.253Z,7.47
2023-01-26T07:03:55.804Z,7.60
2023-01-26T07:06:23.001Z,7.68
2023-01-26T07:08:50.070Z,7.50
2023-01-26T07:11:17.540Z,7.13
2023-01-26T07:13:44.655Z,6.93
2023-01-26T07:16:13.979Z,8.88
2023-01-26T07:18:41.267Z,7.65
2023-01-26T07:21:12.451Z,7.60
2023-01-26T07:23:39.523Z,6.53
2023-01-26T07:26:07.045Z,6.25
2023-01-26T07:28:39.802Z,7.05
2023-01-26T07:31:08.640Z,7.38
2023-01-26T07:33:36.362Z,7.55
2023-01-26T07:36:04.474Z,7.70
2023-01-26T07:38:32.499Z,7.38
2023-01-26T07:40:59.644Z,7.07
2023-01-26T07:43:26.728Z,7.80
2023-01-26T07:45:55.028Z,8.05
2023-01-26T07:48:24.792Z,7.35
2023-01-26T07:50:52.067Z,6.88
2023-01-26T07:53:19.701Z,7.60
2023-01-26T07:55:47.636Z,8.35
2023-01-26T07:58:14.783Z,7.35
2023-01-26T08:00:41.921Z,7.55
2023-01-26T08:03:09.187Z,7.07
2023-01-26T08:05:38.813Z,6.90
2023-01-26T08:08:06.366Z,8.23
2023-01-26T08:10:33.466Z,7.38
2023-01-26T08:13:01.299Z,7.65
2023-01-26T08:15:29.236Z,7.65
2023-01-26T08:17:56.448Z,8.15
2023-01-26T08:20:24.094Z,8.88
2023-01-26T08:22:51.209Z,8.35
2023-01-26T08:25:18.360Z,7.80
2023-01-26T08:27:45.478Z,8.30
2023-01-26T08:30:13.557Z,7.70
2023-01-26T08:32:40.860Z,7.65
2023-01-26T08:35:08.369Z,6.68
2023-01-26T08:37:35.512Z,7.43
2023-01-26T08:40:02.728Z,6.95
2023-01-26T08:42:29.824Z,6.88
2023-01-26T08:44:57.011Z,7.38
2023-01-26T08:47:24.158Z,7.82
2023-01-26T08:49:51.194Z,8.70
2023-01-26T08:52:18.345Z,7.90
2023-01-26T08:54:45.404Z,8.68
2023-01-26T08:57:12.603Z,8.88
2023-01-26T08:59:39.709Z,9.75
2023-01-26T09:02:07.031Z,9.40
2023-01-26T09:04:34.175Z,10.60
2023-01-26T09:07:01.399Z,10.63
2023-01-26T09:09:28.503Z,9.35
2023-01-26T09:11:56.732Z,9.20
2023-01-26T09:14:24.809Z,8.98
2023-01-26T09:16:51.970Z,8.48
2023-01-26T09:19:19.305Z,13.73
2023-01-26T09:21:46.387Z,10.88
2023-01-26T09:24:13.517Z,8.70
2023-01-26T09:26:40.637Z,9.23
2023-01-26T09:29:07.748Z,7.78
2023-01-26T09:31:35.104Z,8.98
2023-01-26T09:34:02.345Z,8.95
2023-01-26T09:36:29.635Z,7.80
2023-01-26T09:38:57.205Z,8.43
2023-01-26T09:41:30.514Z,8.13
2023-01-26T09:44:01.075Z,9.05
2023-01-26T09:46:46.694Z,8.93
2023-01-26T09:49:19.815Z,13.60
2023-01-26T09:52:00.341Z,14.35
2023-01-26T09:54:43.016Z,9.85
2023-01-26T09:57:16.019Z,9.02
2023-01-26T10:00:30.825Z,11.68
2023-01-26T10:03:11.377Z,9.77
2023-01-26T10:05:48.053Z,7.80
2023-01-26T10:08:18.542Z,7.75
2023-01-26T10:10:54.731Z,7.72
2023-01-26T10:13:23.544Z,7.93
2023-01-26T10:16:00.047Z,8.38
2023-01-26T10:18:34.086Z,7.80
2023-01-26T10:21:04.411Z,10.52
2023-01-26T10:23:34.401Z,16.83
2023-01-26T10:26:17.353Z,16.27
2023-01-26T10:28:46.819Z,14.98
2023-01-26T10:31:23.404Z,9.13
2023-01-26T10:33:57.726Z,9.35
2023-01-26T10:36:25.476Z,11.82
2023-01-26T10:38:53.024Z,11.50
2023-01-26T10:41:20.048Z,10.43
2023-01-26T10:43:57.640Z,8.32
2023-01-26T10:46:42.348Z,6.95
2023-01-26T10:49:09.469Z,5.78
2023-01-26T10:51:39.196Z,6.30
2023-01-26T10:54:23.863Z,6.63
2023-01-26T10:56:59.979Z,6.32
2023-01-26T10:59:33.676Z,7.68
2023-01-26T11:02:21.981Z,6.93
2023-01-26T11:05:12.428Z,8.20
2023-01-26T11:07:42.539Z,8.02
2023-01-26T11:10:30.468Z,7.30
2023-01-26T11:13:22.038Z,7.07
2023-01-26T11:16:14.543Z,7.95
2023-01-26T11:19:12.561Z,7.60
2023-01-26T11:21:48.593Z,8.18
2023-01-26T11:24:42.690Z,9.82
2023-01-26T11:27:19.812Z,8.65
2023-01-26T11:29:52.894Z,7.95
2023-01-26T11:32:34.193Z,7.75
2023-01-26T11:35:23.964Z,7.07
2023-01-26T11:38:12.352Z,9.15
2023-01-26T11:41:14.374Z,9.68
2023-01-26T11:43:53.456Z,7.85
2023-01-26T11:47:06.906Z,8.13
2023-01-26T11:50:07.554Z,7.82
2023-01-26T11:52:37.307Z,8.82
2023-01-26T11:55:37.960Z,8.60
2023-01-26T11:58:13.187Z,9.32
2023-01-26T12:00:42.928Z,8.95
2023-01-26T12:03:41.674Z,8.75
2023-01-26T12:06:16.973Z,8.57
2023-01-26T12:08:53.708Z,7.45
2023-01-26T12:11:30.590Z,8.82
2023-01-26T12:14:25.031Z,7.75
2023-01-26T12:17:17.190Z,10.47
2023-01-26T12:19:53.013Z,9.60
2023-01-26T12:22:27.944Z,8.20
2023-01-26T12:25:20.462Z,9.18
2023-01-26T12:27:56.162Z,8.65
2023-01-26T12:30:43.575Z,8.57
2023-01-26T12:33:11.648Z,7.97
2023-01-26T12:35:57.541Z,8.38
2023-01-26T12:38:59.568Z,8.75
2023-01-26T12:41:26.648Z,10.65
2023-01-26T12:44:18.085Z,9.02
2023-01-26T12:46:51.603Z,9.77
2023-01-26T12:49:27.333Z,9.48
2023-01-26T12:52:06.794Z,9.15
2023-01-26T12:54:37.573Z,9.10
2023-01-26T12:57:11.780Z,8.73
2023-01-26T12:59:48.430Z,9.10
2023-01-26T13:02:22.146Z,9.98
2023-01-26T13:04:51.611Z,9.48
2023-01-26T13:07:29.557Z,10.23
2023-01-26T13:10:14.665Z,9.38
2023-01-26T13:12:47.882Z,11.20
2023-01-26T13:15:17.043Z,9.20
2023-01-26T13:17:52.864Z,9.95
2023-01-26T13:20:46.169Z,10.57
2023-01-26T13:23:28.593Z,8.80
2023-01-26T13:26:15.909Z,8.65
2023-01-26T13:28:43.718Z,8.90
2023-01-26T13:31:12.242Z,8.60
2023-01-26T13:33:41.966Z,7.80
2023-01-26T13:36:19.284Z,7.80
2023-01-26T13:39:00.375Z,7.75
2023-01-26T13:41:27.444Z,7.68
2023-01-26T13:44:08.856Z,9.38
2023-01-26T13:46:43.386Z,8.05
2023-01-26T13:51:56.481Z,9.00
2023-01-26T13:54:25.692Z,9.38
2023-01-26T13:57:11.626Z,10.27
2023-01-26T13:59:53.163Z,9.70
2023-01-26T14:02:31.994Z,9.80
2023-01-26T14:05:00.592Z,10.40
2023-01-26T14:07:35.983Z,11.20
2023-01-26T14:10:03.623Z,8.65
2023-01-26T14:12:47.331Z,8.15
2023-01-26T14:15:33.756Z,8.23
2023-01-26T14:18:05.379Z,8.15
2023-01-26T14:20:35.514Z,10.05
2023-01-26T14:23:11.652Z,9.35
2023-01-26T14:25:39.646Z,9.10
2023-01-26T14:28:13.193Z,16.67
2023-01-26T14:30:40.781Z,10.57
2023-01-26T14:33:16.254Z,12.13
2023-01-26T14:35:55.652Z,11.25
2023-01-26T14:38:22.814Z,10.75
2023-01-26T14:40:55.624Z,9.88
2023-01-26T14:43:24.012Z,11.38
2023-01-26T14:46:04.699Z,11.07
2023-01-26T14:48:51.753Z,9.13
2023-01-26T14:51:22.767Z,8.13
2023-01-26T14:54:17.977Z,9.45
2023-01-26T14:59:34.095Z,8.85
2023-01-26T15:02:14.492Z,9.05
2023-01-26T15:04:45.486Z,8.40
2023-01-26T15:07:34.016Z,9.30
2023-01-26T15:10:02.512Z,9.80
2023-01-26T15:12:35.386Z,8.80
2023-01-26T15:15:03.289Z,8.38
2023-01-26T15:17:41.926Z,7.35
2023-01-26T15:20:31.761Z,8.30
2023-01-26T15:22:58.999Z,8.40
2023-01-26T15:25:28.304Z,7.70
2023-01-26T15:28:00.472Z,7.22
2023-01-26T15:30:32.126Z,8.60
2023-01-26T15:32:59.953Z,8.48
2023-01-26T15:35:29.602Z,9.23
2023-01-26T15:38:13.409Z,9.57
2023-01-26T15:40:40.699Z,7.68
2023-01-26T15:43:18.227Z,8.48
2023-01-26T15:46:00.158Z,7.85
2023-01-26T15:48:32.748Z,7.85
2023-01-26T15:51:00.032Z,8.25
2023-01-26T15:53:27.310Z,9.00
2023-01-26T15:55:56.268Z,9.38
2023-01-26T15:58:24.569Z,12.35
2023-01-26T16:00:55.682Z,12.75
2023-01-26T16:03:23.161Z,11.00
2023-01-26T16:05:50.536Z,8.63
2023-01-26T16:08:19.279Z,8.32
2023-01-26T16:10:47.577Z,11.80
2023-01-26T16:13:19.620Z,15.00
2023-01-26T16:15:49.443Z,9.48
2023-01-26T16:18:16.841Z,8.32
2023-01-26T16:20:45.800Z,8.50
2023-01-26T16:23:17.965Z,8.43
2023-01-26T16:25:45.068Z,7.82
2023-01-26T16:28:12.264Z,8.75
2023-01-26T16:30:39.432Z,7.13
2023-01-26T16:33:06.520Z,6.93
2023-01-26T16:35:34.377Z,7.93
2023-01-26T16:38:01.586Z,12.13
2023-01-26T16:40:28.869Z,10.50
2023-01-26T16:42:55.887Z,8.07
2023-01-26T16:45:29.307Z,7.20
2023-01-26T16:47:57.787Z,7.70
2023-01-26T16:50:26.145Z,8.07
2023-01-26T16:52:53.321Z,8.27
2023-01-26T16:55:21.090Z,8.18
2023-01-26T16:57:51.466Z,7.80
2023-01-26T17:00:22.029Z,8.60
2023-01-26T17:02:52.336Z,7.72
2023-01-26T17:05:22.450Z,8.10
2023-01-26T17:07:51.172Z,7.85
2023-01-26T17:10:18.603Z,8.80
2023-01-26T17:12:45.959Z,9.43
2023-01-26T17:15:13.551Z,9.10
2023-01-26T17:17:42.544Z,9.18
2023-01-26T17:20:19.322Z,9.15
2023-01-26T17:22:47.557Z,8.27
2023-01-26T17:25:17.016Z,9.50
2023-01-26T17:27:46.844Z,9.95
2023-01-26T17:30:14.795Z,9.43
2023-01-26T17:32:43.118Z,10.48
2023-01-26T17:35:10.656Z,11.18
2023-01-26T17:37:38.837Z,10.32
2023-01-26T17:40:07.994Z,11.27
2023-01-26T17:42:38.879Z,9.88
2023-01-26T17:45:07.984Z,10.90
2023-01-26T17:47:36.066Z,12.48
2023-01-26T17:50:03.392Z,11.35
2023-01-26T17:52:31.946Z,13.57
2023-01-26T17:54:59.609Z,14.02
2023-01-26T17:57:26.673Z,13.48
2023-01-26T17:59:54.247Z,12.23
2023-01-26T18:02:21.479Z,12.18
2023-01-26T18:04:49.344Z,10.20
2023-01-26T18:07:17.049Z,9.88
2023-01-26T18:09:44.775Z,9.55
2023-01-26T18:12:12.277Z,10.15
2023-01-26T18:14:39.527Z,9.63
2023-01-26T18:17:07.252Z,9.75
2023-01-26T18:19:34.601Z,10.45
2023-01-26T18:22:02.396Z,12.25
2023-01-26T18:24:31.142Z,11.73
2023-01-26T18:26:58.801Z,10.38
2023-01-26T18:29:26.659Z,10.95
2023-01-26T18:31:54.186Z,11.13
2023-01-26T18:34:21.454Z,12.48
2023-01-26T18:36:52.934Z,15.48
2023-01-26T18:39:20.824Z,14.25
2023-01-26T18:41:48.416Z,12.60
2023-01-26T18:44:19.368Z,10.73
2023-01-26T18:46:47.549Z,11.45
2023-01-26T18:49:15.355Z,12.93
2023-01-26T18:51:48.785Z,11.23
2023-01-26T18:54:17.886Z,12.48
2023-01-26T18:56:46.374Z,13.25
2023-01-26T18:59:13.918Z,13.10
2023-01-26T19:01:41.796Z,14.57
2023-01-26T19:04:09.628Z,16.20
2023-01-26T19:06:37.259Z,18.58
2023-01-26T19:09:09.424Z,14.85
2023-01-26T19:11:41.355Z,12.38
2023-01-26T19:14:09.636Z,11.38
2023-01-26T19:16:37.837Z,11.13
2023-01-26T19:19:07.554Z,10.23
2023-01-26T19:21:36.634Z,11.05
2023-01-26T19:24:06.847Z,12.38
2023-01-26T19:26:35.011Z,11.35
2023-01-26T19:29:02.770Z,11.15
2023-01-26T19:31:31.610Z,11.23
2023-01-26T19:34:01.593Z,10.80
2023-01-26T19:36:31.355Z,9.27
2023-01-26T19:38:59.288Z,10.68
2023-01-26T19:41:27.302Z,11.30
2023-01-26T19:43:56.460Z,9.65
2023-01-26T19:46:24.946Z,10.07
2023-01-26T19:48:53.636Z,9.85
2023-01-26T19:51:26.513Z,9.95
2023-01-26T19:54:00.049Z,9.80
2023-01-26T19:56:36.348Z,9.80
2023-01-26T19:59:07.664Z,10.43
2023-01-26T20:01:36.715Z,10.20
2023-01-26T20:04:08.518Z,9.77
2023-01-26T20:06:37.873Z,9.40
2023-01-26T20:09:07.384Z,9.35
2023-01-26T20:11:36.430Z,8.60
2023-01-26T20:14:07.470Z,9.10
2023-01-26T20:16:35.928Z,9.07
2023-01-26T20:19:04.645Z,8.75
2023-01-26T20:21:33.524Z,8.95
2023-01-26T20:24:05.501Z,9.07
2023-01-26T20:26:35.044Z,8.57
2023-01-26T20:29:04.998Z,8.73
2023-01-26T20:31:34.100Z,9.70
2023-01-26T20:34:03.300Z,8.98
2023-01-26T20:36:32.639Z,8.98
2023-01-26T20:39:00.839Z,9.35
2023-01-26T20:41:31.060Z,11.68
2023-01-26T20:44:02.006Z,12.43
2023-01-26T20:46:38.183Z,14.05
2023-01-26T20:49:11.176Z,12.98
2023-01-26T20:51:40.293Z,11.57
2023-01-26T20:54:09.441Z,12.43
2023-01-26T20:56:37.140Z,11.30
2023-01-26T20:59:05.371Z,10.45
2023-01-26T21:01:37.079Z,10.00
2023-01-26T21:04:06.042Z,10.68
2023-01-26T21:06:34.468Z,10.25
2023-01-26T21:09:02.280Z,9.95
2023-01-26T21:11:32.962Z,10.10
2023-01-26T21:14:01.961Z,9.80
2023-01-26T21:16:31.308Z,9.60
2023-01-26T21:18:58.817Z,10.02
2023-01-26T21:21:26.312Z,9.95
2023-01-26T21:23:53.612Z,9.85
2023-01-26T21:26:23.886Z,11.15
2023-01-26T21:28:53.500Z,12.63
2023-01-26T21:31:22.725Z,12.95
2023-01-26T21:33:51.582Z,13.85
2023-01-26T21:36:21.870Z,15.45
2023-01-26T21:38:52.327Z,14.20
2023-01-26T21:41:43.480Z,12.15
2023-01-26T21:44:16.960Z,11.75
2023-01-26T21:46:50.045Z,12.63
2023-01-26T21:49:17.626Z,12.02
2023-01-26T21:52:03.774Z,11.85
2023-01-26T21:54:32.064Z,14.43
2023-01-26T21:56:59.687Z,15.32
2023-01-26T21:59:27.019Z,17.35
2023-01-26T22:01:55.992Z,16.58
2023-01-26T22:04:29.190Z,17.13
2023-01-26T22:06:57.696Z,15.70
2023-01-26T22:09:25.254Z,17.25
2023-01-26T22:11:52.806Z,19.35
2023-01-26T22:14:28.031Z,20.70
2023-01-26T22:16:55.092Z,19.90
2023-01-26T22:19:22.302Z,13.55
2023-01-26T22:21:49.397Z,9.52
2023-01-26T22:24:18.143Z,11.05
2023-01-26T22:26:45.353Z,10.75
2023-01-26T22:29:13.564Z,9.88
2023-01-26T22:31:42.161Z,10.60
2023-01-26T22:34:11.803Z,10.10
2023-01-26T22:36:39.649Z,10.43
2023-01-26T22:39:06.777Z,12.55
2023-01-26T22:41:34.768Z,14.05
2023-01-26T22:44:01.979Z,12.30
2023-01-26T22:46:30.586Z,12.75
2023-01-26T22:48:59.239Z,10.85
2023-01-26T22:51:30.904Z,10.32
2023-01-26T22:53:59.512Z,10.68
2023-01-26T22:56:27.919Z,10.13
2023-01-26T22:58:59.847Z,9.45
2023-01-26T23:01:31.381Z,10.05
2023-01-26T23:04:00.209Z,9.18
2023-01-26T23:06:28.608Z,9.23
2023-01-26T23:08:56.139Z,9.15
2023-01-26T23:11:26.187Z,10.18
2023-01-26T23:13:55.464Z,9.30
2023-01-26T23:16:24.215Z,9.23
2023-01-26T23:18:56.486Z,10.30
2023-01-26T23:21:24.758Z,9.48
2023-01-26T23:23:51.981Z,10.40
2023-01-26T23:26:19.458Z,9.60
2023-01-26T23:28:46.560Z,10.63
2023-01-26T23:31:15.456Z,11.30
2023-01-26T23:33:43.030Z,10.25
2023-01-26T23:36:12.781Z,10.18
2023-01-26T23:38:40.057Z,10.27
2023-01-26T23:41:08.978Z,10.05
2023-01-26T23:43:36.296Z,9.75
2023-01-26T23:46:05.099Z,10.65
2023-01-26T23:48:32.229Z,10.57
2023-01-26T23:51:00.649Z,9.95
2023-01-26T23:53:29.111Z,9.63
2023-01-26T23:55:57.328Z,9.88
2023-01-26T23:58:24.524Z,10.77
